createdAt,value
2022-09-16T00:01:23.407Z,96346.38
2022-09-16T00:03:56.645Z,96348.28
2022-09-16T00:06:28.341Z,96343.06
2022-09-16T00:08:58.799Z,96336.78
2022-09-16T00:11:27.156Z,96337.25
2022-09-16T00:13:55.573Z,96336.13
2022-09-16T00:16:26.115Z,96335.31
2022-09-16T00:18:58.050Z,96332.66
2022-09-16T00:21:27.757Z,96335.50
2022-09-16T00:23:57.615Z,96331.53
2022-09-16T00:26:26.552Z,96328.81
2022-09-16T00:28:54.806Z,96325.16
2022-09-16T00:31:23.167Z,96326.06
2022-09-16T00:33:51.908Z,96325.97
2022-09-16T00:36:21.917Z,96325.19
2022-09-16T00:38:53.219Z,96320.72
2022-09-16T00:41:25.068Z,96316.50
2022-09-16T00:43:57.709Z,96328.59
2022-09-16T00:46:36.671Z,96326.19
2022-09-16T00:49:14.009Z,96336.56
2022-09-16T00:51:47.817Z,96333.16
2022-09-16T00:54:19.150Z,96331.31
2022-09-16T00:56:52.322Z,96341.69
2022-09-16T00:59:26.492Z,96329.28
2022-09-16T01:01:57.762Z,96330.88
2022-09-16T01:04:30.755Z,96333.81
2022-09-16T01:07:01.440Z,96335.19
2022-09-16T01:09:31.672Z,96334.19
2022-09-16T01:11:59.898Z,96318.00
2022-09-16T01:14:48.261Z,96324.25
2022-09-16T01:17:28.106Z,96312.06
2022-09-16T01:20:55.527Z,96305.78
2022-09-16T01:24:05.182Z,96307.28
2022-09-16T01:27:14.035Z,96303.19
2022-09-16T01:30:22.720Z,96310.91
2022-09-16T01:33:05.806Z,96303.53
2022-09-16T01:35:56.196Z,96310.13
2022-09-16T01:38:44.221Z,96312.88
2022-09-16T01:41:28.299Z,96319.91
2022-09-16T01:44:07.693Z,96312.34
2022-09-16T01:46:47.915Z,96318.53
2022-09-16T01:49:27.423Z,96316.81
2022-09-16T01:52:11.519Z,96327.41
2022-09-16T01:54:46.920Z,96317.84
2022-09-16T01:57:21.389Z,96321.16
2022-09-16T01:59:57.577Z,96316.69
2022-09-16T02:02:34.691Z,96323.88
2022-09-16T02:05:13.718Z,96326.06
2022-09-16T02:07:50.969Z,96322.56
2022-09-16T02:10:28.568Z,96315.25
2022-09-16T02:13:03.476Z,96323.47
2022-09-16T02:15:35.307Z,96318.22
2022-09-16T02:18:11.805Z,96314.88
2022-09-16T02:20:46.503Z,96314.06
2022-09-16T02:23:19.877Z,96310.97
2022-09-16T02:25:51.289Z,96307.81
2022-09-16T02:28:26.300Z,96299.50
2022-09-16T02:30:59.161Z,96299.16
2022-09-16T02:33:35.581Z,96299.84
2022-09-16T02:36:08.486Z,96298.34
2022-09-16T02:38:42.816Z,96297.44
2022-09-16T02:41:14.808Z,96302.34
2022-09-16T02:43:43.914Z,96302.34
2022-09-16T02:46:23.610Z,96308.72
2022-09-16T02:49:04.206Z,96310.06
2022-09-16T02:51:46.157Z,96323.16
2022-09-16T02:54:26.623Z,96313.22
2022-09-16T02:56:57.995Z,96315.50
2022-09-16T02:59:26.838Z,96312.41
2022-09-16T03:01:55.242Z,96313.75
2022-09-16T03:04:23.630Z,96313.41
2022-09-16T03:06:53.338Z,96312.72
2022-09-16T03:09:24.048Z,96314.66
2022-09-16T03:12:32.699Z,96313.84
2022-09-16T03:15:47.858Z,96317.06
2022-09-16T03:18:52.347Z,96323.63
2022-09-16T03:21:33.255Z,96321.94
2022-09-16T03:24:16.413Z,96321.72
2022-09-16T03:26:54.102Z,96320.78
2022-09-16T03:29:31.003Z,96312.38
2022-09-16T03:32:09.384Z,96315.09
2022-09-16T03:34:45.937Z,96308.72
2022-09-16T03:37:19.976Z,96302.91
2022-09-16T03:39:53.863Z,96310.91
2022-09-16T03:42:22.581Z,96309.97
2022-09-16T03:44:51.318Z,96307.69
2022-09-16T03:47:20.018Z,96311.78
2022-09-16T03:49:48.248Z,96305.41
2022-09-16T03:52:18.578Z,96302.41
2022-09-16T03:54:46.893Z,96309.38
2022-09-16T03:57:16.555Z,96313.03
2022-09-16T03:59:44.776Z,96303.75
2022-09-16T04:02:13.072Z,96303.16
2022-09-16T04:04:41.274Z,96298.03
2022-09-16T04:07:09.557Z,96295.53
2022-09-16T04:09:38.342Z,96298.81
2022-09-16T04:12:07.721Z,96300.13
2022-09-16T04:14:37.822Z,96307.09
2022-09-16T04:17:06.323Z,96307.22
2022-09-16T04:19:34.549Z,96314.16
2022-09-16T04:22:02.998Z,96307.22
2022-09-16T04:24:31.316Z,96305.19
2022-09-16T04:26:59.721Z,96309.69
2022-09-16T04:29:28.285Z,96307.03
2022-09-16T04:31:57.884Z,96306.34
2022-09-16T04:34:26.846Z,96307.81
2022-09-16T04:36:55.209Z,96304.75
2022-09-16T04:39:23.506Z,96314.22
2022-09-16T04:41:51.846Z,96308.47
2022-09-16T04:44:20.303Z,96317.03
2022-09-16T04:46:48.563Z,96305.91
2022-09-16T04:49:18.574Z,96309.69
2022-09-16T04:51:46.810Z,96304.13
2022-09-16T04:54:15.190Z,96304.59
2022-09-16T04:56:43.403Z,96304.75
2022-09-16T04:59:11.881Z,96311.53
2022-09-16T05:01:41.820Z,96303.69
2022-09-16T05:04:11.510Z,96292.19
2022-09-16T05:06:42.748Z,96288.44
2022-09-16T05:09:13.134Z,96287.72
2022-09-16T05:11:42.755Z,96300.16
2022-09-16T05:14:16.885Z,96299.47
2022-09-16T05:16:45.951Z,96302.19
2022-09-16T05:19:15.552Z,96299.31
2022-09-16T05:21:45.139Z,96307.69
2022-09-16T05:24:15.159Z,96312.09
2022-09-16T05:26:45.121Z,96303.69
2022-09-16T05:29:17.529Z,96309.63
2022-09-16T05:31:47.974Z,96312.97
2022-09-16T05:34:19.597Z,96318.44
2022-09-16T05:36:50.840Z,96324.63
2022-09-16T05:39:24.071Z,96326.56
2022-09-16T05:41:57.198Z,96332.03
2022-09-16T05:44:26.506Z,96333.19
2022-09-16T05:46:55.296Z,96317.22
2022-09-16T05:49:23.872Z,96324.09
2022-09-16T05:51:54.830Z,96318.03
2022-09-16T05:54:25.354Z,96311.91
2022-09-16T05:56:54.038Z,96309.09
2022-09-16T05:59:23.545Z,96306.78
2022-09-16T06:01:51.863Z,96313.88
2022-09-16T06:04:20.140Z,96316.34
2022-09-16T06:06:48.613Z,96310.69
2022-09-16T06:09:21.059Z,96315.66
2022-09-16T06:11:51.757Z,96326.53
2022-09-16T06:14:22.705Z,96331.41
2022-09-16T06:16:51.138Z,96340.16
2022-09-16T06:19:20.616Z,96323.00
2022-09-16T06:21:49.863Z,96316.72
2022-09-16T06:24:21.810Z,96295.97
2022-09-16T06:26:50.658Z,96300.91
2022-09-16T06:29:19.252Z,96287.56
2022-09-16T06:31:47.884Z,96298.38
2022-09-16T06:34:19.111Z,96307.28
2022-09-16T06:36:49.024Z,96306.56
2022-09-16T06:39:19.602Z,96313.66
2022-09-16T06:41:47.957Z,96310.13
2022-09-16T06:44:16.144Z,96302.19
2022-09-16T06:46:44.709Z,96301.00
2022-09-16T06:49:13.168Z,96304.03
2022-09-16T06:51:41.705Z,96315.63
2022-09-16T06:54:11.234Z,96315.72
2022-09-16T06:56:41.603Z,96310.66
2022-09-16T06:59:12.945Z,96315.16
2022-09-16T07:01:42.079Z,96313.06
2022-09-16T07:04:13.481Z,96310.56
2022-09-16T07:07:08.096Z,96312.72
2022-09-16T07:09:31.054Z,96309.94
2022-09-16T07:12:00.989Z,96315.03
2022-09-16T07:14:32.580Z,96316.63
2022-09-16T07:17:01.603Z,96322.56
2022-09-16T07:19:30.486Z,96320.28
2022-09-16T07:21:59.165Z,96321.44
2022-09-16T07:24:27.577Z,96315.88
2022-09-16T07:26:55.852Z,96329.53
2022-09-16T07:29:25.479Z,96321.28
2022-09-16T07:31:53.894Z,96332.88
2022-09-16T07:34:22.390Z,96333.84
2022-09-16T07:36:51.340Z,96337.09
2022-09-16T07:39:21.352Z,96334.91
2022-09-16T07:41:49.969Z,96329.31
2022-09-16T07:44:20.463Z,96325.84
2022-09-16T07:46:51.617Z,96328.00
2022-09-16T07:49:20.566Z,96320.09
2022-09-16T07:51:49.457Z,96320.72
2022-09-16T07:54:19.924Z,96325.78
2022-09-16T07:56:48.652Z,96317.63
2022-09-16T07:59:20.167Z,96321.47
2022-09-16T08:01:51.091Z,96327.56
2022-09-16T08:04:20.951Z,96331.19
2022-09-16T08:06:49.879Z,96319.13
2022-09-16T08:12:10.823Z,96323.66
2022-09-16T08:14:39.423Z,96329.00
2022-09-16T08:17:09.122Z,96326.53
2022-09-16T08:19:38.450Z,96325.84
2022-09-16T08:22:06.905Z,96331.97
2022-09-16T08:24:35.195Z,96337.75
2022-09-16T08:27:03.451Z,96340.13
2022-09-16T08:29:31.644Z,96334.88
2022-09-16T08:31:59.936Z,96341.19
2022-09-16T08:34:29.564Z,96346.13
2022-09-16T08:36:57.874Z,96351.69
2022-09-16T08:39:26.208Z,96352.81
2022-09-16T08:42:29.655Z,96346.91
2022-09-16T08:45:16.086Z,96351.34
2022-09-16T08:48:09.064Z,96348.88
2022-09-16T08:50:42.536Z,96349.78
2022-09-16T08:53:20.622Z,96361.03
2022-09-16T08:55:53.143Z,96361.03
2022-09-16T08:58:26.638Z,96368.56
2022-09-16T09:00:59.640Z,96374.75
2022-09-16T09:03:38.718Z,96369.34
2022-09-16T09:06:26.658Z,96350.66
2022-09-16T09:09:07.693Z,96343.22
2022-09-16T09:11:46.475Z,96350.13
2022-09-16T09:14:39.699Z,96357.03
2022-09-16T09:17:21.405Z,96358.94
2022-09-16T09:20:06.792Z,96355.22
2022-09-16T09:23:02.210Z,96353.19
2022-09-16T09:25:42.450Z,96351.06
2022-09-16T09:28:45.250Z,96357.78
2022-09-16T09:31:27.431Z,96345.13
2022-09-16T09:34:07.415Z,96340.72
2022-09-16T09:36:59.620Z,96343.31
2022-09-16T09:39:44.056Z,96343.41
2022-09-16T09:42:21.272Z,96334.00
2022-09-16T09:45:01.505Z,96327.75
2022-09-16T09:47:37.921Z,96318.97
2022-09-16T09:50:20.913Z,96333.31
2022-09-16T09:53:01.203Z,96333.47
2022-09-16T09:55:35.877Z,96336.41
2022-09-16T09:58:23.192Z,96329.59
2022-09-16T10:00:53.191Z,96325.72
2022-09-16T10:03:21.532Z,96330.81
2022-09-16T10:05:50.302Z,96334.78
2022-09-16T10:08:28.064Z,96332.78
2022-09-16T10:11:02.199Z,96324.72
2022-09-16T10:13:32.289Z,96330.72
2022-09-16T10:16:13.731Z,96328.13
2022-09-16T10:18:42.634Z,96324.41
2022-09-16T10:21:15.529Z,96316.78
2022-09-16T10:23:55.407Z,96318.66
2022-09-16T10:26:27.761Z,96334.34
2022-09-16T10:29:02.906Z,96327.88
2022-09-16T10:31:38.605Z,96335.25
2022-09-16T10:34:20.064Z,96320.75
2022-09-16T10:36:59.922Z,96323.91
2022-09-16T10:39:31.053Z,96328.34
2022-09-16T10:42:07.948Z,96325.16
2022-09-16T10:44:39.671Z,96325.78
2022-09-16T10:47:19.308Z,96316.09
2022-09-16T10:49:51.650Z,96323.38
2022-09-16T10:52:23.454Z,96318.88
2022-09-16T10:54:52.250Z,96319.84
2022-09-16T10:57:29.871Z,96329.59
2022-09-16T11:00:08.711Z,96346.13
2022-09-16T11:03:23.803Z,96341.19
2022-09-16T11:06:12.668Z,96340.03
2022-09-16T11:09:01.255Z,96345.72
2022-09-16T11:11:52.463Z,96350.22
2022-09-16T11:14:38.758Z,96345.16
2022-09-16T11:17:39.625Z,96346.38
2022-09-16T11:20:54.622Z,96344.72
2022-09-16T11:23:40.507Z,96347.38
2022-09-16T11:26:20.010Z,96340.50
2022-09-16T11:29:27.268Z,96342.06
2022-09-16T11:32:11.486Z,96342.59
2022-09-16T11:35:00.424Z,96341.72
2022-09-16T11:37:37.438Z,96340.56
2022-09-16T11:40:28.209Z,96353.66
2022-09-16T11:43:14.535Z,96346.56
2022-09-16T11:45:56.320Z,96347.16
2022-09-16T11:48:47.359Z,96346.50
2022-09-16T11:51:34.052Z,96346.09
2022-09-16T11:54:26.275Z,96344.50
2022-09-16T11:57:00.817Z,96333.03
2022-09-16T11:59:36.797Z,96332.31
2022-09-16T12:02:21.137Z,96341.06
2022-09-16T12:05:00.632Z,96349.03
2022-09-16T12:07:41.094Z,96339.91
2022-09-16T12:10:22.789Z,96337.16
2022-09-16T12:12:59.057Z,96331.34
2022-09-16T12:18:16.666Z,96308.50
2022-09-16T12:20:52.785Z,96317.81
2022-09-16T12:23:25.962Z,96310.41
2022-09-16T12:26:08.328Z,96309.06
2022-09-16T12:28:45.996Z,96301.53
2022-09-16T12:31:24.541Z,96322.84
2022-09-16T12:34:00.296Z,96322.47
2022-09-16T12:36:36.295Z,96325.50
2022-09-16T12:39:04.868Z,96322.06
2022-09-16T12:42:02.014Z,96329.06
2022-09-16T12:45:03.778Z,96327.03
2022-09-16T12:48:35.812Z,96329.94
2022-09-16T12:51:35.894Z,96321.34
2022-09-16T12:54:51.194Z,96320.00
2022-09-16T12:57:50.979Z,96326.31
2022-09-16T13:00:23.164Z,96322.78
2022-09-16T13:02:57.372Z,96323.41
2022-09-16T13:05:33.569Z,96322.78
2022-09-16T13:08:08.963Z,96322.50
2022-09-16T13:11:11.570Z,96322.16
2022-09-16T13:13:35.645Z,96319.22
2022-09-16T13:16:08.007Z,96315.25
2022-09-16T13:18:44.113Z,96322.59
2022-09-16T13:21:40.879Z,96322.31
2022-09-16T13:24:26.086Z,96322.50
2022-09-16T13:26:55.509Z,96321.06
2022-09-16T13:29:44.261Z,96327.13
2022-09-16T13:32:38.312Z,96325.03
2022-09-16T13:35:26.340Z,96322.97
2022-09-16T13:37:55.619Z,96323.19
2022-09-16T13:40:28.774Z,96326.56
2022-09-16T13:43:13.820Z,96327.75
2022-09-16T13:45:44.753Z,96322.97
2022-09-16T13:48:19.428Z,96309.75
2022-09-16T13:50:52.949Z,96310.88
2022-09-16T13:53:30.102Z,96315.00
2022-09-16T13:56:16.556Z,96323.22
2022-09-16T13:59:00.646Z,96311.84
2022-09-16T14:01:58.712Z,96314.34
2022-09-16T14:04:47.627Z,96307.34
2022-09-16T14:07:32.220Z,96307.41
2022-09-16T14:10:09.361Z,96299.38
2022-09-16T14:12:54.254Z,96301.38
2022-09-16T14:15:24.181Z,96287.28
2022-09-16T14:17:59.111Z,96287.41
2022-09-16T14:20:28.594Z,96288.25
2022-09-16T14:23:05.722Z,96292.75
2022-09-16T14:25:37.157Z,96290.72
2022-09-16T14:28:18.380Z,96294.84
2022-09-16T14:30:53.684Z,96294.34
2022-09-16T14:33:30.356Z,96296.66
2022-09-16T14:36:00.145Z,96296.06
2022-09-16T14:38:46.452Z,96290.88
2022-09-16T14:41:29.846Z,96299.47
2022-09-16T14:44:11.872Z,96295.97
2022-09-16T14:46:47.468Z,96280.50
2022-09-16T14:49:18.492Z,96293.94
2022-09-16T14:51:52.268Z,96287.16
2022-09-16T14:54:23.058Z,96282.66
2022-09-16T14:57:04.768Z,96292.97
2022-09-16T14:59:37.883Z,96282.19
2022-09-16T15:02:21.780Z,96276.00
2022-09-16T15:04:58.714Z,96275.44
2022-09-16T15:07:34.338Z,96272.00
2022-09-16T15:10:08.838Z,96274.59
2022-09-16T15:12:52.931Z,96279.66
2022-09-16T15:15:27.005Z,96285.44
2022-09-16T15:17:58.971Z,96285.22
2022-09-16T15:20:32.236Z,96277.38
2022-09-16T15:23:02.682Z,96273.47
2022-09-16T15:25:35.487Z,96275.50
2022-09-16T15:28:08.071Z,96276.31
2022-09-16T15:30:48.959Z,96278.25
2022-09-16T15:33:31.110Z,96283.22
2022-09-16T15:36:02.756Z,96273.25
2022-09-16T15:38:32.194Z,96286.47
2022-09-16T15:41:05.590Z,96286.91
2022-09-16T15:43:40.290Z,96285.25
2022-09-16T15:46:21.958Z,96286.69
2022-09-16T15:48:55.593Z,96285.41
2022-09-16T15:51:32.737Z,96287.31
2022-09-16T15:54:16.067Z,96276.56
2022-09-16T15:56:59.025Z,96279.69
2022-09-16T15:59:33.418Z,96288.09
2022-09-16T16:02:07.922Z,96299.25
2022-09-16T16:04:36.666Z,96300.06
2022-09-16T16:07:08.105Z,96293.19
2022-09-16T16:09:45.681Z,96300.84
2022-09-16T16:12:17.258Z,96296.50
2022-09-16T16:14:46.627Z,96303.78
2022-09-16T16:17:20.351Z,96304.75
2022-09-16T16:19:51.098Z,96303.44
2022-09-16T16:22:20.664Z,96305.16
2022-09-16T16:24:49.049Z,96294.97
2022-09-16T16:27:17.294Z,96293.53
2022-09-16T16:29:45.549Z,96300.31
2022-09-16T16:32:17.365Z,96299.53
2022-09-16T16:34:50.086Z,96296.66
2022-09-16T16:37:44.567Z,96305.91
2022-09-16T16:40:10.040Z,96300.56
2022-09-16T16:42:38.324Z,96299.19
2022-09-16T16:45:08.501Z,96307.78
2022-09-16T16:47:38.501Z,96313.28
2022-09-16T16:50:07.552Z,96306.34
2022-09-16T16:52:35.914Z,96312.25
2022-09-16T16:55:04.290Z,96315.97
2022-09-16T16:57:32.825Z,96320.09
2022-09-16T17:00:01.063Z,96320.94
2022-09-16T17:02:29.880Z,96329.13
2022-09-16T17:04:59.586Z,96328.16
2022-09-16T17:07:29.062Z,96312.63
2022-09-16T17:09:58.597Z,96311.44
2022-09-16T17:12:27.216Z,96312.84
2022-09-16T17:14:55.493Z,96316.22
2022-09-16T17:17:26.512Z,96337.81
2022-09-16T17:20:00.578Z,96328.78
2022-09-16T17:22:29.124Z,96329.78
2022-09-16T17:24:57.588Z,96325.53
2022-09-16T17:27:27.755Z,96329.84
2022-09-16T17:29:56.073Z,96325.22
2022-09-16T17:32:24.945Z,96326.69
2022-09-16T17:34:53.221Z,96327.69
2022-09-16T17:37:22.816Z,96322.75
2022-09-16T17:39:51.110Z,96325.13
2022-09-16T17:42:20.516Z,96326.53
2022-09-16T17:44:49.149Z,96322.44
2022-09-16T17:47:17.404Z,96321.84
2022-09-16T17:49:45.608Z,96328.47
2022-09-16T17:52:14.264Z,96334.38
2022-09-16T17:54:43.899Z,96341.75
2022-09-16T17:57:12.174Z,96344.41
2022-09-16T17:59:40.369Z,96350.09
2022-09-16T18:02:12.093Z,96344.97
2022-09-16T18:04:43.008Z,96344.31
2022-09-16T18:07:11.605Z,96345.91
2022-09-16T18:09:40.585Z,96347.41
2022-09-16T18:12:10.618Z,96343.97
2022-09-16T18:14:39.283Z,96339.09
2022-09-16T18:17:07.610Z,96338.50
2022-09-16T18:19:35.906Z,96340.44
2022-09-16T18:22:04.800Z,96344.53
2022-09-16T18:24:33.299Z,96340.09
2022-09-16T18:27:02.577Z,96342.22
2022-09-16T18:29:32.529Z,96346.53
2022-09-16T18:32:00.749Z,96342.91
2022-09-16T18:34:33.204Z,96344.69
2022-09-16T18:37:02.100Z,96337.31
2022-09-16T18:39:30.378Z,96345.63
2022-09-16T18:41:58.602Z,96349.19
2022-09-16T18:44:27.171Z,96350.34
2022-09-16T18:46:57.359Z,96347.16
2022-09-16T18:49:27.090Z,96349.53
2022-09-16T18:51:55.922Z,96346.72
2022-09-16T18:54:28.609Z,96359.94
2022-09-16T18:56:59.167Z,96351.94
2022-09-16T18:59:31.187Z,96360.50
2022-09-16T19:02:03.566Z,96373.28
2022-09-16T19:04:38.248Z,96375.75
2022-09-16T19:07:13.780Z,96374.00
2022-09-16T19:09:42.478Z,96381.63
2022-09-16T19:12:12.629Z,96378.00
2022-09-16T19:14:41.896Z,96373.41
2022-09-16T19:17:11.650Z,96375.22
2022-09-16T19:19:40.265Z,96375.34
2022-09-16T19:22:08.893Z,96368.28
2022-09-16T19:24:38.443Z,96362.63
2022-09-16T19:27:06.734Z,96363.59
2022-09-16T19:29:34.927Z,96358.22
2022-09-16T19:32:03.473Z,96347.06
2022-09-16T19:34:33.022Z,96352.16
2022-09-16T19:37:01.236Z,96338.06
2022-09-16T19:39:29.614Z,96337.94
2022-09-16T19:42:03.155Z,96339.06
2022-09-16T19:44:31.883Z,96331.66
2022-09-16T19:47:01.349Z,96337.59
2022-09-16T19:49:29.582Z,96333.81
2022-09-16T19:51:59.256Z,96337.47
2022-09-16T19:54:27.598Z,96338.16
2022-09-16T19:56:55.983Z,96337.47
2022-09-16T19:59:24.685Z,96332.47
2022-09-16T20:01:53.178Z,96333.16
2022-09-16T20:04:21.507Z,96336.75
2022-09-16T20:06:50.390Z,96344.75
2022-09-16T20:09:20.380Z,96335.16
2022-09-16T20:11:49.885Z,96343.91
2022-09-16T20:14:21.704Z,96354.13
2022-09-16T20:16:51.827Z,96349.34
2022-09-16T20:19:21.304Z,96349.34
2022-09-16T20:21:50.067Z,96342.97
2022-09-16T20:24:22.158Z,96338.06
2022-09-16T20:26:52.520Z,96342.97
2022-09-16T20:29:22.000Z,96340.81
2022-09-16T20:31:53.613Z,96342.28
2022-09-16T20:34:24.198Z,96348.66
2022-09-16T20:36:52.657Z,96345.56
2022-09-16T20:39:22.805Z,96352.38
2022-09-16T20:41:52.665Z,96348.00
2022-09-16T20:44:21.001Z,96348.13
2022-09-16T20:46:50.041Z,96353.59
2022-09-16T20:49:20.564Z,96356.75
2022-09-16T20:51:48.749Z,96353.31
2022-09-16T20:54:17.809Z,96366.31
2022-09-16T20:56:49.359Z,96365.19
2022-09-16T20:59:20.249Z,96359.97
2022-09-16T21:01:50.050Z,96362.56
2022-09-16T21:04:21.377Z,96360.13
2022-09-16T21:06:49.988Z,96359.56
2022-09-16T21:09:19.160Z,96363.66
2022-09-16T21:11:50.173Z,96362.88
2022-09-16T21:14:21.625Z,96367.88
2022-09-16T21:16:51.652Z,96382.13
2022-09-16T21:19:20.188Z,96388.63
2022-09-16T21:21:48.710Z,96395.22
2022-09-16T21:24:17.674Z,96395.44
2022-09-16T21:26:48.481Z,96394.19
2022-09-16T21:29:21.413Z,96391.59
2022-09-16T21:31:50.654Z,96384.19
2022-09-16T21:34:21.300Z,96395.44
2022-09-16T21:36:50.966Z,96397.50
2022-09-16T21:39:21.857Z,96397.81
2022-09-16T21:41:51.778Z,96402.66
2022-09-16T21:44:20.113Z,96408.34
2022-09-16T21:46:49.717Z,96403.16
2022-09-16T21:49:22.753Z,96412.88
2022-09-16T21:51:52.915Z,96408.97
2022-09-16T21:54:22.010Z,96403.66
2022-09-16T21:56:52.903Z,96400.09
2022-09-16T21:59:21.730Z,96401.47
2022-09-16T22:01:51.616Z,96407.81
2022-09-16T22:04:22.294Z,96402.34
2022-09-16T22:06:52.805Z,96409.53
2022-09-16T22:09:21.445Z,96407.66
2022-09-16T22:11:51.542Z,96405.59
2022-09-16T22:14:20.041Z,96407.06
2022-09-16T22:16:48.275Z,96400.59
2022-09-16T22:19:19.727Z,96400.72
2022-09-16T22:21:50.674Z,96406.06
2022-09-16T22:24:21.469Z,96411.81
2022-09-16T22:26:52.706Z,96406.06
2022-09-16T22:29:22.094Z,96412.59
2022-09-16T22:31:50.784Z,96412.16
2022-09-16T22:34:19.253Z,96412.28
2022-09-16T22:36:47.561Z,96414.34
2022-09-16T22:39:18.327Z,96414.53
2022-09-16T22:41:46.719Z,96416.81
2022-09-16T22:44:16.337Z,96411.47
2022-09-16T22:46:47.292Z,96414.22
2022-09-16T22:49:16.686Z,96411.19
2022-09-16T22:51:45.552Z,96412.06
2022-09-16T22:54:15.791Z,96411.59
2022-09-16T22:56:45.393Z,96422.28
2022-09-16T22:59:19.287Z,96419.81
2022-09-16T23:01:48.254Z,96425.69
2022-09-16T23:04:17.284Z,96430.09
2022-09-16T23:06:45.532Z,96426.06
2022-09-16T23:09:15.136Z,96413.13
2022-09-16T23:11:43.635Z,96420.00
2022-09-16T23:14:24.782Z,96415.31
2022-09-16T23:16:54.190Z,96409.41
2022-09-16T23:19:23.151Z,96396.88
2022-09-16T23:21:51.629Z,96397.88
2022-09-16T23:24:22.523Z,96395.34
2022-09-16T23:26:50.972Z,96400.06
2022-09-16T23:29:20.500Z,96402.22
2022-09-16T23:31:48.809Z,96403.84
2022-09-16T23:34:21.145Z,96405.38
2022-09-16T23:36:50.501Z,96404.88
2022-09-16T23:39:19.667Z,96403.97
2022-09-16T23:41:49.846Z,96408.63
2022-09-16T23:44:18.739Z,96406.34
2022-09-16T23:46:48.335Z,96411.34
2022-09-16T23:49:20.227Z,96406.25
2022-09-16T23:51:49.050Z,96412.13
2022-09-16T23:54:17.547Z,96407.94
2022-09-16T23:56:46.933Z,96410.53
2022-09-16T23:59:15.103Z,96417.31
